createdAt,value
2023-02-19T00:01:46.485Z,-4.91
2023-02-19T00:04:16.125Z,-4.89
2023-02-19T00:06:44.528Z,-5.12
2023-02-19T00:09:13.350Z,-5.13
2023-02-19T00:11:41.162Z,-5.17
2023-02-19T00:14:08.902Z,-5.05
2023-02-19T00:16:39.309Z,-4.70
2023-02-19T00:19:12.095Z,-4.83
2023-02-19T00:21:39.181Z,-4.58
2023-02-19T00:24:07.725Z,-4.72
2023-02-19T00:26:35.097Z,-4.79
2023-02-19T00:29:02.545Z,-5.11
2023-02-19T00:31:34.516Z,-6.54
2023-02-19T00:34:04.621Z,-5.66
2023-02-19T00:36:32.777Z,-5.30
2023-02-19T00:38:59.879Z,-5.55
2023-02-19T00:41:27.053Z,-5.29
2023-02-19T00:44:00.776Z,-5.05
2023-02-19T00:46:32.186Z,-4.90
2023-02-19T00:49:00.087Z,-5.37
2023-02-19T00:51:32.156Z,-5.29
2023-02-19T00:53:59.369Z,-5.21
2023-02-19T00:56:27.543Z,-4.93
2023-02-19T00:58:56.692Z,-5.22
2023-02-19T01:01:23.910Z,-5.10
2023-02-19T01:03:51.622Z,-5.09
2023-02-19T01:06:20.974Z,-4.95
2023-02-19T01:08:48.441Z,-4.63
2023-02-19T01:11:16.780Z,-4.49
2023-02-19T01:13:44.377Z,-4.60
2023-02-19T01:16:14.432Z,-4.75
2023-02-19T01:18:41.878Z,-4.69
2023-02-19T01:21:13.869Z,-4.57
2023-02-19T01:23:41.771Z,-5.18
2023-02-19T01:26:13.068Z,-5.31
2023-02-19T01:28:41.366Z,-5.24
2023-02-19T01:31:13.127Z,-5.52
2023-02-19T01:33:40.595Z,-5.89
2023-02-19T01:36:07.866Z,-5.32
2023-02-19T01:38:34.956Z,-5.24
2023-02-19T01:41:04.258Z,-5.21
2023-02-19T01:43:36.029Z,-5.51
2023-02-19T01:46:03.197Z,-5.46
2023-02-19T01:48:34.604Z,-5.44
2023-02-19T01:51:13.224Z,-5.13
2023-02-19T01:53:44.803Z,-4.99
2023-02-19T01:56:14.954Z,-4.80
2023-02-19T01:58:42.328Z,-4.83
2023-02-19T02:01:10.103Z,-5.49
2023-02-19T02:03:40.610Z,-5.34
2023-02-19T02:06:08.073Z,-5.47
2023-02-19T02:08:54.143Z,-5.42
2023-02-19T02:11:21.704Z,-5.13
2023-02-19T02:13:49.377Z,-4.99
2023-02-19T02:16:31.755Z,-5.00
2023-02-19T02:19:22.432Z,-5.02
2023-02-19T02:22:12.673Z,-4.88
2023-02-19T02:25:17.766Z,-5.48
2023-02-19T02:28:23.698Z,-5.51
2023-02-19T02:31:06.592Z,-4.98
2023-02-19T02:33:39.780Z,-4.80
2023-02-19T02:36:18.618Z,-5.10
2023-02-19T02:38:47.805Z,-5.24
2023-02-19T02:41:16.259Z,-5.09
2023-02-19T02:43:43.687Z,-5.12
2023-02-19T02:46:12.850Z,-5.12
2023-02-19T02:48:56.765Z,-4.86
2023-02-19T02:51:30.043Z,-5.34
2023-02-19T02:54:53.112Z,-5.93
2023-02-19T02:57:22.397Z,-6.08
2023-02-19T02:59:54.281Z,-6.09
2023-02-19T03:02:26.893Z,-6.05
2023-02-19T03:05:35.068Z,-5.65
2023-02-19T03:08:10.319Z,-5.78
2023-02-19T03:10:43.540Z,-6.02
2023-02-19T03:13:54.463Z,-5.50
2023-02-19T03:16:49.951Z,-5.73
2023-02-19T03:19:20.748Z,-5.76
2023-02-19T03:21:59.462Z,-5.76
2023-02-19T03:24:53.593Z,-5.39
2023-02-19T03:27:22.612Z,-5.90
2023-02-19T03:29:57.187Z,-5.96
2023-02-19T03:33:08.319Z,-5.40
2023-02-19T03:35:43.613Z,-5.84
2023-02-19T03:38:20.938Z,-5.68
2023-02-19T03:41:05.939Z,-5.32
2023-02-19T03:43:53.815Z,-5.03
2023-02-19T03:46:29.609Z,-5.43
2023-02-19T03:49:02.107Z,-5.40
2023-02-19T03:51:51.517Z,-5.72
2023-02-19T03:54:27.910Z,-5.36
2023-02-19T03:57:05.872Z,-5.12
2023-02-19T03:59:36.666Z,-5.98
2023-02-19T04:02:12.783Z,-5.74
2023-02-19T04:04:47.573Z,-5.38
2023-02-19T04:07:15.114Z,-5.29
2023-02-19T04:09:49.107Z,-5.52
2023-02-19T04:12:21.170Z,-5.32
2023-02-19T04:15:06.122Z,-5.38
2023-02-19T04:18:07.655Z,-5.08
2023-02-19T04:20:41.286Z,-5.55
2023-02-19T04:23:08.803Z,-5.45
2023-02-19T04:25:39.758Z,-5.78
2023-02-19T04:28:09.168Z,-5.70
2023-02-19T04:30:36.473Z,-5.23
2023-02-19T04:33:03.582Z,-5.50
2023-02-19T04:35:30.766Z,-5.51
2023-02-19T04:37:58.033Z,-5.41
2023-02-19T04:40:25.083Z,-5.13
2023-02-19T04:42:52.189Z,-5.20
2023-02-19T04:45:19.342Z,-5.11
2023-02-19T04:47:46.434Z,-4.96
2023-02-19T04:50:13.521Z,-5.08
2023-02-19T04:52:40.871Z,-5.36
2023-02-19T04:55:09.217Z,-5.93
2023-02-19T04:57:36.417Z,-5.43
2023-02-19T05:00:04.907Z,-5.39
2023-02-19T05:02:32.169Z,-5.08
2023-02-19T05:05:00.235Z,-5.75
2023-02-19T05:07:27.317Z,-5.68
2023-02-19T05:09:54.432Z,-5.26
2023-02-19T05:12:22.118Z,-5.06
2023-02-19T05:14:49.416Z,-5.29
2023-02-19T05:17:16.545Z,-5.13
2023-02-19T05:19:43.660Z,-5.00
2023-02-19T05:22:10.746Z,-5.16
2023-02-19T05:24:37.809Z,-5.13
2023-02-19T05:27:04.973Z,-5.37
2023-02-19T05:29:32.641Z,-5.27
2023-02-19T05:31:59.710Z,-5.00
2023-02-19T05:34:26.771Z,-5.49
2023-02-19T05:36:53.893Z,-5.52
2023-02-19T05:39:20.971Z,-5.33
2023-02-19T05:41:48.037Z,-5.54
2023-02-19T05:44:15.149Z,-5.24
2023-02-19T05:46:42.270Z,-5.13
2023-02-19T05:49:09.381Z,-5.16
2023-02-19T05:51:36.462Z,-5.01
2023-02-19T05:54:03.971Z,-5.06
2023-02-19T05:56:32.844Z,-5.09
2023-02-19T05:59:03.965Z,-4.90
2023-02-19T06:01:31.511Z,-5.03
2023-02-19T06:03:58.782Z,-5.42
2023-02-19T06:06:26.789Z,-4.99
2023-02-19T06:08:54.351Z,-4.89
2023-02-19T06:11:21.762Z,-4.58
2023-02-19T06:13:50.407Z,-4.51
2023-02-19T06:16:18.480Z,-4.76
2023-02-19T06:18:46.205Z,-4.83
2023-02-19T06:21:14.937Z,-4.42
2023-02-19T06:23:42.876Z,-5.33
2023-02-19T06:26:13.306Z,-5.06
2023-02-19T06:28:42.074Z,-4.76
2023-02-19T06:31:10.552Z,-4.35
2023-02-19T06:33:41.840Z,-5.41
2023-02-19T06:36:13.314Z,-4.78
2023-02-19T06:38:40.519Z,-4.66
2023-02-19T06:41:09.019Z,-4.68
2023-02-19T06:43:36.770Z,-4.42
2023-02-19T06:46:05.982Z,-4.02
2023-02-19T06:48:33.552Z,-4.81
2023-02-19T06:51:00.928Z,-4.41
2023-02-19T06:53:28.044Z,-4.60
2023-02-19T06:56:02.324Z,-4.37
2023-02-19T06:58:29.780Z,-5.10
2023-02-19T07:00:57.154Z,-4.80
2023-02-19T07:03:24.439Z,-4.30
2023-02-19T07:05:51.928Z,-3.90
2023-02-19T07:08:19.167Z,-3.56
2023-02-19T07:10:46.363Z,-3.90
2023-02-19T07:13:13.398Z,-3.53
2023-02-19T07:15:40.576Z,-4.27
2023-02-19T07:18:10.609Z,-3.95
2023-02-19T07:20:38.262Z,-3.67
2023-02-19T07:23:05.342Z,-3.32
2023-02-19T07:25:32.497Z,-3.60
2023-02-19T07:27:59.625Z,-3.80
2023-02-19T07:30:26.830Z,-3.87
2023-02-19T07:32:53.966Z,-3.52
2023-02-19T07:35:21.065Z,-3.17
2023-02-19T07:37:48.230Z,-4.39
2023-02-19T07:40:15.416Z,-3.68
2023-02-19T07:42:42.530Z,-3.24
2023-02-19T07:45:10.017Z,-3.05
2023-02-19T07:47:37.232Z,-3.52
2023-02-19T07:50:04.509Z,-3.54
2023-02-19T07:52:33.565Z,-3.41
2023-02-19T07:55:00.637Z,-3.27
2023-02-19T07:57:31.446Z,-3.78
2023-02-19T07:59:59.075Z,-3.41
2023-02-19T08:02:44.952Z,-3.11
2023-02-19T08:05:13.654Z,-3.14
2023-02-19T08:07:40.757Z,-3.06
2023-02-19T08:10:26.506Z,-2.74
2023-02-19T08:13:19.456Z,-2.66
2023-02-19T08:15:47.445Z,-2.56
2023-02-19T08:18:16.472Z,-3.08
2023-02-19T08:20:44.381Z,-2.91
2023-02-19T08:23:12.835Z,-2.63
2023-02-19T08:25:41.110Z,-2.86
2023-02-19T08:28:09.848Z,-2.79
2023-02-19T08:30:38.677Z,-2.66
2023-02-19T08:33:07.618Z,-2.99
2023-02-19T08:35:36.657Z,-3.20
2023-02-19T08:38:04.991Z,-2.90
2023-02-19T08:40:33.487Z,-2.90
2023-02-19T08:43:08.981Z,-2.77
2023-02-19T08:45:38.511Z,-3.22
2023-02-19T08:48:06.089Z,-2.94
2023-02-19T08:50:33.441Z,-3.16
2023-02-19T08:53:01.628Z,-3.73
2023-02-19T08:55:29.230Z,-3.55
2023-02-19T08:57:56.516Z,-3.32
2023-02-19T09:00:23.923Z,-3.22
2023-02-19T09:02:51.096Z,-3.10
2023-02-19T09:05:18.265Z,-2.66
2023-02-19T09:07:45.416Z,-2.78
2023-02-19T09:10:13.859Z,-2.45
2023-02-19T09:12:41.816Z,-2.39
2023-02-19T09:15:09.569Z,-2.48
2023-02-19T09:17:36.697Z,-2.21
2023-02-19T09:20:04.358Z,-1.89
2023-02-19T09:22:31.412Z,-1.44
2023-02-19T09:24:58.484Z,-1.30
2023-02-19T09:27:25.608Z,-1.39
2023-02-19T09:29:52.698Z,-1.77
2023-02-19T09:32:19.833Z,-1.82
2023-02-19T09:34:46.932Z,-2.09
2023-02-19T09:37:13.938Z,-3.11
2023-02-19T09:39:40.988Z,-2.80
2023-02-19T09:42:27.274Z,-3.16
2023-02-19T09:44:57.760Z,-2.80
2023-02-19T09:47:28.269Z,-2.50
2023-02-19T09:50:17.610Z,-1.98
2023-02-19T09:52:55.277Z,-3.84
2023-02-19T09:55:38.069Z,-3.53
2023-02-19T09:58:30.200Z,-2.47
2023-02-19T10:01:01.456Z,-1.95
2023-02-19T10:03:33.873Z,-3.02
2023-02-19T10:06:24.349Z,-2.76
2023-02-19T10:08:56.279Z,-2.51
2023-02-19T10:11:26.360Z,-2.83
2023-02-19T10:14:09.434Z,-2.64
2023-02-19T10:16:41.194Z,-2.75
2023-02-19T10:19:13.669Z,-3.53
2023-02-19T10:21:41.939Z,-3.12
2023-02-19T10:24:17.003Z,-3.02
2023-02-19T10:26:44.072Z,-4.06
2023-02-19T10:29:11.710Z,-3.36
2023-02-19T10:31:38.993Z,-2.74
2023-02-19T10:34:18.950Z,-2.70
2023-02-19T10:36:50.425Z,-2.93
2023-02-19T10:39:23.313Z,-3.50
2023-02-19T10:41:51.806Z,-3.04
2023-02-19T10:44:23.968Z,-3.14
2023-02-19T10:46:55.467Z,-2.85
2023-02-19T10:49:37.739Z,-2.81
2023-02-19T10:52:36.774Z,-3.42
2023-02-19T10:55:26.910Z,-3.01
2023-02-19T10:57:55.224Z,-2.69
2023-02-19T11:00:29.037Z,-2.27
2023-02-19T11:03:15.126Z,-1.86
2023-02-19T11:06:02.204Z,-1.50
2023-02-19T11:08:30.601Z,-1.65
2023-02-19T11:10:59.011Z,-1.38
2023-02-19T11:13:32.793Z,-1.51
2023-02-19T11:16:00.531Z,-1.62
2023-02-19T11:18:37.101Z,-1.34
2023-02-19T11:21:06.700Z,-1.24
2023-02-19T11:23:47.297Z,-3.11
2023-02-19T11:26:24.256Z,-2.72
2023-02-19T11:29:11.510Z,-2.34
2023-02-19T11:31:38.675Z,-2.21
2023-02-19T11:34:14.796Z,-1.66
2023-02-19T11:36:42.678Z,-1.39
2023-02-19T11:39:16.011Z,-1.45
2023-02-19T11:42:01.409Z,-1.72
2023-02-19T11:44:35.409Z,-1.83
2023-02-19T11:47:24.708Z,-1.41
2023-02-19T11:50:16.090Z,-1.69
2023-02-19T11:52:51.172Z,-1.80
2023-02-19T11:55:46.031Z,-1.55
2023-02-19T11:58:21.935Z,-1.80
2023-02-19T12:01:00.865Z,-1.67
2023-02-19T12:04:20.997Z,-1.40
2023-02-19T12:07:18.733Z,-1.70
2023-02-19T12:09:58.403Z,-2.68
2023-02-19T12:12:42.062Z,-2.34
2023-02-19T12:15:38.349Z,-2.10
2023-02-19T12:18:27.734Z,-1.67
2023-02-19T12:21:19.213Z,-1.49
2023-02-19T12:24:24.639Z,-1.95
2023-02-19T12:27:13.077Z,-1.73
2023-02-19T12:30:20.946Z,-1.29
2023-02-19T12:33:00.106Z,-2.26
2023-02-19T12:35:43.556Z,-2.30
2023-02-19T12:38:42.448Z,-2.11
2023-02-19T12:41:21.252Z,-2.31
2023-02-19T12:44:00.920Z,-2.32
2023-02-19T12:46:38.640Z,-2.72
2023-02-19T12:49:34.901Z,-2.95
2023-02-19T12:52:24.280Z,-2.49
2023-02-19T12:54:56.008Z,-2.17
2023-02-19T12:57:30.363Z,-1.99
2023-02-19T13:00:08.082Z,-1.76
2023-02-19T13:03:12.445Z,-1.83
2023-02-19T13:05:50.059Z,-1.99
2023-02-19T13:08:34.103Z,-1.90
2023-02-19T13:11:15.329Z,-2.51
2023-02-19T13:13:48.522Z,-2.65
2023-02-19T13:16:19.443Z,-2.29
2023-02-19T13:18:48.850Z,-2.15
2023-02-19T13:21:37.895Z,-2.18
2023-02-19T13:24:10.083Z,-2.16
2023-02-19T13:26:37.226Z,-2.21
2023-02-19T13:29:34.855Z,-2.08
2023-02-19T13:32:10.862Z,-1.88
2023-02-19T13:35:20.306Z,-1.88
2023-02-19T13:37:48.842Z,-1.95
2023-02-19T13:40:22.864Z,-2.02
2023-02-19T13:42:55.126Z,-1.99
2023-02-19T13:45:27.514Z,-2.17
2023-02-19T13:47:54.781Z,-2.34
2023-02-19T13:50:23.319Z,-2.40
2023-02-19T13:52:51.729Z,-2.24
2023-02-19T13:55:44.291Z,-2.13
2023-02-19T13:58:33.318Z,-2.24
2023-02-19T14:01:06.447Z,-2.57
2023-02-19T14:03:55.368Z,-2.45
2023-02-19T14:06:22.878Z,-2.13
2023-02-19T14:08:56.256Z,-2.37
2023-02-19T14:11:41.739Z,-2.55
2023-02-19T14:14:39.971Z,-2.31
2023-02-19T14:17:09.732Z,-2.17
2023-02-19T14:19:42.951Z,-2.12
2023-02-19T14:22:43.948Z,-2.10
2023-02-19T14:25:29.661Z,-2.25
2023-02-19T14:28:15.738Z,-2.12
2023-02-19T14:30:51.789Z,-2.11
2023-02-19T14:33:24.118Z,-3.02
2023-02-19T14:36:03.521Z,-3.68
2023-02-19T14:38:36.943Z,-3.41
2023-02-19T14:41:06.448Z,-3.05
2023-02-19T14:43:35.429Z,-2.86
2023-02-19T14:46:17.518Z,-3.23
2023-02-19T14:48:47.891Z,-3.23
2023-02-19T14:51:31.689Z,-2.83
2023-02-19T14:54:01.704Z,-2.92
2023-02-19T14:56:34.618Z,-2.88
2023-02-19T14:59:29.016Z,-2.86
2023-02-19T15:02:13.582Z,-2.73
2023-02-19T15:04:40.812Z,-3.16
2023-02-19T15:07:11.990Z,-3.79
2023-02-19T15:09:46.851Z,-3.69
2023-02-19T15:12:25.684Z,-3.48
2023-02-19T15:15:00.256Z,-3.43
2023-02-19T15:17:30.848Z,-3.32
2023-02-19T15:20:03.619Z,-3.38
2023-02-19T15:22:32.725Z,-3.28
2023-02-19T15:25:05.272Z,-3.16
2023-02-19T15:27:34.437Z,-3.15
2023-02-19T15:30:01.629Z,-3.14
2023-02-19T15:32:32.769Z,-3.07
2023-02-19T15:35:03.004Z,-3.74
2023-02-19T15:37:34.047Z,-3.79
2023-02-19T15:40:05.669Z,-3.40
2023-02-19T15:42:35.118Z,-3.85
2023-02-19T15:45:25.125Z,-4.10
2023-02-19T15:47:56.115Z,-3.87
2023-02-19T15:50:26.042Z,-3.64
2023-02-19T15:53:04.643Z,-3.49
2023-02-19T15:55:40.876Z,-3.25
2023-02-19T15:58:19.779Z,-3.83
2023-02-19T16:00:52.442Z,-3.65
2023-02-19T16:03:22.227Z,-3.45
2023-02-19T16:06:06.738Z,-3.21
2023-02-19T16:08:36.753Z,-3.09
2023-02-19T16:11:28.205Z,-3.05
2023-02-19T16:14:35.034Z,-3.05
2023-02-19T16:17:11.212Z,-2.83
2023-02-19T16:19:55.531Z,-2.77
2023-02-19T16:22:26.830Z,-2.68
2023-02-19T16:24:59.011Z,-2.51
2023-02-19T16:27:41.887Z,-2.71
2023-02-19T16:30:11.049Z,-2.96
2023-02-19T16:32:38.288Z,-2.67
2023-02-19T16:35:06.443Z,-2.74
2023-02-19T16:37:37.774Z,-2.66
2023-02-19T16:40:07.819Z,-2.62
2023-02-19T16:42:37.147Z,-3.74
2023-02-19T16:45:04.581Z,-3.23
2023-02-19T16:47:34.501Z,-3.74
2023-02-19T16:50:04.077Z,-3.57
2023-02-19T16:52:31.464Z,-3.86
2023-02-19T16:54:58.794Z,-4.19
2023-02-19T16:57:25.949Z,-3.42
2023-02-19T16:59:53.102Z,-2.99
2023-02-19T17:02:22.807Z,-2.83
2023-02-19T17:04:51.924Z,-2.72
2023-02-19T17:07:19.135Z,-2.85
2023-02-19T17:09:46.276Z,-2.82
2023-02-19T17:12:16.003Z,-2.66
2023-02-19T17:14:43.247Z,-2.61
2023-02-19T17:17:10.396Z,-2.84
2023-02-19T17:19:39.459Z,-4.20
2023-02-19T17:22:07.215Z,-3.69
2023-02-19T17:24:34.443Z,-3.20
2023-02-19T17:27:01.739Z,-2.84
2023-02-19T17:29:30.682Z,-2.56
2023-02-19T17:31:57.893Z,-3.16
2023-02-19T17:34:25.056Z,-3.27
2023-02-19T17:36:52.209Z,-2.98
2023-02-19T17:39:19.639Z,-2.85
2023-02-19T17:41:46.736Z,-3.00
2023-02-19T17:44:13.872Z,-2.93
2023-02-19T17:46:41.669Z,-3.71
2023-02-19T17:49:11.186Z,-3.43
2023-02-19T17:51:38.278Z,-3.16
2023-02-19T17:54:08.034Z,-3.15
2023-02-19T17:56:35.742Z,-2.77
2023-02-19T17:59:02.900Z,-2.73
2023-02-19T18:01:30.022Z,-2.74
2023-02-19T18:03:57.201Z,-2.56
2023-02-19T18:06:24.295Z,-2.41
2023-02-19T18:08:53.175Z,-2.55
2023-02-19T18:11:22.402Z,-2.84
2023-02-19T18:13:52.888Z,-3.45
2023-02-19T18:16:20.503Z,-3.13
2023-02-19T18:18:47.768Z,-3.10
2023-02-19T18:21:15.058Z,-2.94
2023-02-19T18:23:42.418Z,-3.23
2023-02-19T18:26:11.345Z,-3.13
2023-02-19T18:28:39.454Z,-3.46
2023-02-19T18:31:06.977Z,-3.19
2023-02-19T18:33:37.004Z,-2.80
2023-02-19T18:36:04.665Z,-2.81
2023-02-19T18:38:31.716Z,-2.81
2023-02-19T18:40:58.982Z,-2.89
2023-02-19T18:43:26.056Z,-3.02
2023-02-19T18:45:53.212Z,-3.36
2023-02-19T18:48:20.383Z,-3.49
2023-02-19T18:50:47.614Z,-3.27
2023-02-19T18:53:14.776Z,-3.13
2023-02-19T18:55:41.903Z,-2.97
2023-02-19T18:58:09.013Z,-2.86
2023-02-19T19:00:36.328Z,-2.90
2023-02-19T19:03:03.519Z,-3.26
2023-02-19T19:05:30.724Z,-3.33
2023-02-19T19:07:59.574Z,-3.18
2023-02-19T19:10:26.748Z,-2.88
2023-02-19T19:12:54.546Z,-3.08
2023-02-19T19:15:22.457Z,-3.12
2023-02-19T19:17:49.634Z,-3.83
2023-02-19T19:20:21.921Z,-3.38
2023-02-19T19:22:50.713Z,-3.17
2023-02-19T19:25:18.563Z,-3.64
2023-02-19T19:27:46.215Z,-3.55
2023-02-19T19:30:13.824Z,-3.50
2023-02-19T19:32:40.967Z,-3.09
2023-02-19T19:35:08.633Z,-3.67
2023-02-19T19:37:35.718Z,-3.59
2023-02-19T19:40:04.137Z,-3.24
2023-02-19T19:42:31.240Z,-3.41
2023-02-19T19:44:58.360Z,-4.03
2023-02-19T19:47:25.449Z,-3.67
2023-02-19T19:49:52.537Z,-3.53
2023-02-19T19:52:19.685Z,-3.17
2023-02-19T19:54:47.028Z,-3.90
2023-02-19T19:57:15.993Z,-3.78
2023-02-19T19:59:43.040Z,-4.26
2023-02-19T20:02:12.045Z,-4.45
2023-02-19T20:04:39.107Z,-4.14
2023-02-19T20:07:06.447Z,-4.78
2023-02-19T20:09:33.764Z,-4.45
2023-02-19T20:12:00.915Z,-4.22
2023-02-19T20:14:28.029Z,-4.26
2023-02-19T20:16:55.665Z,-4.10
2023-02-19T20:19:22.860Z,-3.89
2023-02-19T20:21:52.675Z,-3.96
2023-02-19T20:24:28.956Z,-4.21
2023-02-19T20:27:00.424Z,-3.77
2023-02-19T20:29:29.945Z,-4.70
2023-02-19T20:32:00.303Z,-4.00
2023-02-19T20:34:27.891Z,-3.83
2023-02-19T20:36:55.363Z,-3.82
2023-02-19T20:39:22.843Z,-3.63
2023-02-19T20:41:52.005Z,-3.41
2023-02-19T20:44:19.940Z,-3.88
2023-02-19T20:46:49.502Z,-3.77
2023-02-19T20:49:19.285Z,-3.60
2023-02-19T20:51:49.611Z,-3.19
2023-02-19T20:54:18.407Z,-3.00
2023-02-19T20:56:49.814Z,-2.86
2023-02-19T20:59:18.352Z,-2.68
2023-02-19T21:01:45.787Z,-2.83
2023-02-19T21:04:13.734Z,-3.43
2023-02-19T21:06:40.837Z,-3.63
2023-02-19T21:09:08.311Z,-3.44
2023-02-19T21:11:35.590Z,-3.09
2023-02-19T21:14:03.149Z,-2.99
2023-02-19T21:16:32.170Z,-2.90
2023-02-19T21:18:59.776Z,-2.95
2023-02-19T21:21:27.035Z,-3.24
2023-02-19T21:23:55.959Z,-3.28
2023-02-19T21:26:24.006Z,-3.40
2023-02-19T21:28:54.167Z,-2.99
2023-02-19T21:31:22.812Z,-2.75
2023-02-19T21:33:51.673Z,-3.08
2023-02-19T21:36:18.755Z,-3.39
2023-02-19T21:38:46.109Z,-3.67
2023-02-19T21:41:13.182Z,-3.69
2023-02-19T21:43:40.277Z,-3.76
2023-02-19T21:46:07.372Z,-3.91
2023-02-19T21:48:34.453Z,-3.97
2023-02-19T21:51:01.880Z,-3.87
2023-02-19T21:53:28.981Z,-4.11
2023-02-19T21:55:59.118Z,-4.02
2023-02-19T21:58:26.871Z,-4.25
2023-02-19T22:00:54.326Z,-4.39
2023-02-19T22:03:21.435Z,-4.40
2023-02-19T22:05:48.467Z,-4.23
2023-02-19T22:08:17.558Z,-4.51
2023-02-19T22:10:44.755Z,-4.31
2023-02-19T22:13:11.861Z,-4.78
2023-02-19T22:15:38.918Z,-4.60
2023-02-19T22:18:06.162Z,-4.28
2023-02-19T22:20:34.844Z,-4.08
2023-02-19T22:23:02.055Z,-4.56
2023-02-19T22:25:29.084Z,-4.35
2023-02-19T22:27:56.197Z,-4.65
2023-02-19T22:30:23.288Z,-4.61
2023-02-19T22:32:50.440Z,-4.44
2023-02-19T22:35:17.623Z,-4.25
2023-02-19T22:37:44.760Z,-4.05
2023-02-19T22:40:12.255Z,-4.35
2023-02-19T22:42:39.553Z,-4.52
2023-02-19T22:45:07.294Z,-4.25
2023-02-19T22:47:34.338Z,-3.73
2023-02-19T22:50:01.425Z,-3.91
2023-02-19T22:52:30.326Z,-4.11
2023-02-19T22:54:57.556Z,-4.23
2023-02-19T22:57:24.618Z,-4.10
2023-02-19T22:59:51.779Z,-4.19
2023-02-19T23:02:18.929Z,-4.14
2023-02-19T23:04:46.183Z,-4.09
2023-02-19T23:07:13.374Z,-4.07
2023-02-19T23:09:40.541Z,-4.04
2023-02-19T23:12:10.602Z,-4.48
2023-02-19T23:14:38.077Z,-4.26
2023-02-19T23:17:05.452Z,-4.18
2023-02-19T23:19:32.923Z,-4.22
2023-02-19T23:22:00.278Z,-4.28
2023-02-19T23:24:27.414Z,-3.92
2023-02-19T23:26:54.945Z,-3.93
2023-02-19T23:29:25.608Z,-3.88
2023-02-19T23:31:53.929Z,-4.38
2023-02-19T23:34:21.740Z,-4.26
2023-02-19T23:36:50.536Z,-3.97
2023-02-19T23:39:21.488Z,-4.56
2023-02-19T23:41:48.549Z,-4.24
2023-02-19T23:44:16.498Z,-4.26
2023-02-19T23:46:43.773Z,-4.45
2023-02-19T23:49:11.067Z,-4.06
2023-02-19T23:51:38.199Z,-4.36
2023-02-19T23:54:05.465Z,-4.59
2023-02-19T23:56:32.817Z,-4.86
2023-02-19T23:59:00.123Z,-4.57
